Aérodrome :
LOGIN :

S'inscrire | Disclaimer

   EN    FR    IT 

 










Légende :    VFR   VFR Marginal   IFR   IFR Intensif   IFR Très Intensif
Visi : 
Plafond : 
>= 8 km
>= 3000ft
5 à 8 km
1000 à 3000 ft
1500m à 5 km
500 à 1000 ft
800 à 1500m
200 à 500 ft
< 800m
< 200 ft
Symboles :   Orages  Brouillard  Fortes neiges  Fortes précipitations  Vent > 20 kt
SIGMETs :   Divers  Orages  Givrage  Turbulence  Onde Orograph.  Cendres Volcan.







- Altitude de l'aérodrome : 370 ft


EBBE - Beauvechain AB

DERNIER METAR :
  • 241125Z AUTO 12007KT 9999 NCD 27/11 Q1020 BLU

METARs EXPIRÉS :
  • 241055Z AUTO 14006KT 9999 NCD 27/11 Q1020 BLU
  • 241025Z AUTO 13006KT 9999 NCD 27/12 Q1021 BLU
  • 241016Z AUTO 14007KT 9999 NCD 27/10 Q1021 BLU
  • 241005Z AUTO 12006KT 6000 NCD 26/10 Q1021 WHT
  • 240925Z AUTO 12005KT 9999 NCD 26/12 Q1021 BLU
  • 240923Z AUTO 11005KT 9999 NCD 26/13 Q1021 BLU
  • 240912Z AUTO 11006KT 6000 NCD 25/13 Q1021 WHT
  • 240825Z AUTO VRB02KT 9999 NCD 25/12 Q1021 BLU

Prévision TAF périmée.
Pas de NOTAMs connus pour ce terrain.



MET'MAP, la Météo Aéronautique d'un coup d'oeil ! - Copyright ORBIFLY Décembre 2007 - Disclaimer

ORBIFLY MET'MAP TEAM :

Programmation & Développement : Alexandra Zaïnal
Conception & Développement : Baudouin d'Aumeries
Co-Programmation & Développement : Marc-Olivier Méhu
Soutien technique & logistique : Manuel Goepfert

Contact : metmap@orbifly.com




SOURCES & CREDITS :

   NOAA